Dayton, Ohio
Current Conditions -  °F | °C
As of 12:58 AM on Saturday 29 Nov 2014 (Local Time) from KFFO Reporting Station
Clear Clear  
Wind Chill: -4°   Ceiling: Unl
Heat Index:   Visibility: 10mi
Dew Point: -8°   Wind: 8mph
Humidity: 58%   Direction: 160°SSE
Pressure: 30.06"   Gusts: NA
Location:  39.76°N, 84.19°W
Report Text: KFFO 290558Z AUTO 16007KT 10SM CLR 00/M07 A3006 RMK AO2 SLP191 T10011075 10000 21006 57021
Loading
Personal Weather Stations






























Interactive Weather Map New forecast layout! Learn more

10-Day Weather Forecast

Advertisements
Track Severe Weather on mobile